sensor_id;sensor_type;location;lat;lon;timestamp;temperature;humidity
30308;DHT22;17114;52.314;8.910;2024-03-23T00:55:17;7.60;99.90
30308;DHT22;17114;52.314;8.910;2024-03-23T00:57:43;7.50;99.90
30308;DHT22;17114;52.314;8.910;2024-03-23T01:00:09;7.50;99.90
30308;DHT22;17114;52.314;8.910;2024-03-23T01:02:36;7.50;99.90
30308;DHT22;17114;52.314;8.910;2024-03-23T01:05:02;7.50;99.90
30308;DHT22;17114;52.314;8.910;2024-03-23T01:07:28;7.50;99.90
30308;DHT22;17114;52.314;8.910;2024-03-23T01:09:54;7.50;99.90
30308;DHT22;17114;52.314;8.910;2024-03-23T01:12:20;7.50;99.90
30308;DHT22;17114;52.314;8.910;2024-03-23T01:14:47;7.50;99.90
30308;DHT22;17114;52.314;8.910;2024-03-23T01:17:13;7.60;99.90
30308;DHT22;17114;52.314;8.910;2024-03-23T01:19:39;7.40;99.90
30308;DHT22;17114;52.314;8.910;2024-03-23T01:22:07;7.50;99.90
30308;DHT22;17114;52.314;8.910;2024-03-23T01:24:36;7.50;99.90
30308;DHT22;17114;52.314;8.910;2024-03-23T01:27:02;7.50;99.90
30308;DHT22;17114;52.314;8.910;2024-03-23T01:29:29;7.40;99.90
30308;DHT22;17114;52.314;8.910;2024-03-23T01:31:55;7.40;99.90
30308;DHT22;17114;52.314;8.910;2024-03-23T01:34:22;7.30;99.90
30308;DHT22;17114;52.314;8.910;2024-03-23T01:36:48;7.40;99.90
30308;DHT22;17114;52.314;8.910;2024-03-23T01:39:14;7.40;99.90
30308;DHT22;17114;52.314;8.910;2024-03-23T01:41:40;7.30;99.90
30308;DHT22;17114;52.314;8.910;2024-03-23T01:44:08;7.30;99.90
30308;DHT22;17114;52.314;8.910;2024-03-23T01:46:38;7.20;99.90
30308;DHT22;17114;52.314;8.910;2024-03-23T01:49:05;7.20;99.90
30308;DHT22;17114;52.314;8.910;2024-03-23T01:51:32;7.20;99.90
30308;DHT22;17114;52.314;8.910;2024-03-23T01:54:00;7.20;99.90
30308;DHT22;17114;52.314;8.910;2024-03-23T01:56:35;7.10;99.90
30308;DHT22;17114;52.314;8.910;2024-03-23T01:59:02;7.10;99.90
30308;DHT22;17114;52.314;8.910;2024-03-23T02:01:28;7.10;99.90
30308;DHT22;17114;52.314;8.910;2024-03-23T02:03:57;7.10;99.90
30308;DHT22;17114;52.314;8.910;2024-03-23T02:06:27;7.00;99.90
30308;DHT22;17114;52.314;8.910;2024-03-23T02:08:54;7.10;99.90
30308;DHT22;17114;52.314;8.910;2024-03-23T02:11:21;7.10;99.90
30308;DHT22;17114;52.314;8.910;2024-03-23T02:13:47;7.10;99.90
30308;DHT22;17114;52.314;8.910;2024-03-23T02:16:13;7.10;99.90
30308;DHT22;17114;52.314;8.910;2024-03-23T02:18:39;7.00;99.90
30308;DHT22;17114;52.314;8.910;2024-03-23T02:21:05;7.00;99.90
30308;DHT22;17114;52.314;8.910;2024-03-23T02:23:31;7.00;99.90
30308;DHT22;17114;52.314;8.910;2024-03-23T02:25:58;6.90;99.90
30308;DHT22;17114;52.314;8.910;2024-03-23T02:28:24;6.90;99.90
30308;DHT22;17114;52.314;8.910;2024-03-23T02:30:50;6.90;99.90
30308;DHT22;17114;52.314;8.910;2024-03-23T02:33:17;6.90;99.90
30308;DHT22;17114;52.314;8.910;2024-03-23T02:35:47;6.90;99.90
30308;DHT22;17114;52.314;8.910;2024-03-23T02:38:13;6.90;99.90
30308;DHT22;17114;52.314;8.910;2024-03-23T02:40:39;6.70;99.90
30308;DHT22;17114;52.314;8.910;2024-03-23T02:43:06;6.90;99.90
30308;DHT22;17114;52.314;8.910;2024-03-23T02:45:32;6.90;99.90
30308;DHT22;17114;52.314;8.910;2024-03-23T02:47:58;6.90;99.90
30308;DHT22;17114;52.314;8.910;2024-03-23T02:50:24;6.90;99.90
30308;DHT22;17114;52.314;8.910;2024-03-23T02:52:50;6.90;99.90
30308;DHT22;17114;52.314;8.910;2024-03-23T02:55:16;6.90;99.90
30308;DHT22;17114;52.314;8.910;2024-03-23T02:57:42;6.90;99.90
30308;DHT22;17114;52.314;8.910;2024-03-23T03:00:09;6.90;99.90
30308;DHT22;17114;52.314;8.910;2024-03-23T03:02:36;6.80;99.90
30308;DHT22;17114;52.314;8.910;2024-03-23T03:05:04;6.70;99.90
30308;DHT22;17114;52.314;8.910;2024-03-23T03:07:31;6.70;99.90
30308;DHT22;17114;52.314;8.910;2024-03-23T03:09:58;6.70;99.90
30308;DHT22;17114;52.314;8.910;2024-03-23T03:12:24;6.70;99.90
30308;DHT22;17114;52.314;8.910;2024-03-23T03:14:50;6.70;99.90
30308;DHT22;17114;52.314;8.910;2024-03-23T03:17:17;6.70;99.90
30308;DHT22;17114;52.314;8.910;2024-03-23T03:19:43;6.70;99.90
30308;DHT22;17114;52.314;8.910;2024-03-23T03:22:08;6.70;99.90
30308;DHT22;17114;52.314;8.910;2024-03-23T03:24:35;6.70;99.90
30308;DHT22;17114;52.314;8.910;2024-03-23T03:27:01;6.70;99.90
30308;DHT22;17114;52.314;8.910;2024-03-23T03:29:29;6.60;99.90
30308;DHT22;17114;52.314;8.910;2024-03-23T03:32:02;6.60;99.90
30308;DHT22;17114;52.314;8.910;2024-03-23T03:34:29;6.60;99.90
30308;DHT22;17114;52.314;8.910;2024-03-23T03:36:55;6.60;99.90
30308;DHT22;17114;52.314;8.910;2024-03-23T03:39:21;6.50;99.90
30308;DHT22;17114;52.314;8.910;2024-03-23T03:41:49;6.50;99.90
30308;DHT22;17114;52.314;8.910;2024-03-23T03:44:15;6.50;99.90
30308;DHT22;17114;52.314;8.910;2024-03-23T03:46:41;6.60;99.90
30308;DHT22;17114;52.314;8.910;2024-03-23T03:49:08;6.60;99.90
30308;DHT22;17114;52.314;8.910;2024-03-23T03:51:34;6.70;99.90
30308;DHT22;17114;52.314;8.910;2024-03-23T03:54:00;6.60;99.90
30308;DHT22;17114;52.314;8.910;2024-03-23T03:56:26;6.70;99.90
30308;DHT22;17114;52.314;8.910;2024-03-23T03:58:53;6.70;99.90
30308;DHT22;17114;52.314;8.910;2024-03-23T04:01:20;6.70;99.90
30308;DHT22;17114;52.314;8.910;2024-03-23T04:03:46;6.50;99.90
30308;DHT22;17114;52.314;8.910;2024-03-23T04:06:15;6.60;99.90
30308;DHT22;17114;52.314;8.910;2024-03-23T04:08:44;6.60;99.90
30308;DHT22;17114;52.314;8.910;2024-03-23T04:11:10;6.60;99.90
30308;DHT22;17114;52.314;8.910;2024-03-23T04:13:36;6.50;99.90
30308;DHT22;17114;52.314;8.910;2024-03-23T04:16:03;6.50;99.90
30308;DHT22;17114;52.314;8.910;2024-03-23T04:18:29;6.50;99.90
30308;DHT22;17114;52.314;8.910;2024-03-23T04:20:56;6.60;99.90
30308;DHT22;17114;52.314;8.910;2024-03-23T04:23:22;6.50;99.90
30308;DHT22;17114;52.314;8.910;2024-03-23T04:25:48;6.50;99.90
30308;DHT22;17114;52.314;8.910;2024-03-23T04:28:14;6.50;99.90
30308;DHT22;17114;52.314;8.910;2024-03-23T04:30:40;6.50;99.90
30308;DHT22;17114;52.314;8.910;2024-03-23T04:33:06;6.40;99.90
30308;DHT22;17114;52.314;8.910;2024-03-23T04:35:33;6.40;99.90
30308;DHT22;17114;52.314;8.910;2024-03-23T04:37:59;6.40;99.90
30308;DHT22;17114;52.314;8.910;2024-03-23T04:40:26;6.40;99.90
30308;DHT22;17114;52.314;8.910;2024-03-23T04:42:52;6.50;99.90
30308;DHT22;17114;52.314;8.910;2024-03-23T04:45:18;6.50;99.90
30308;DHT22;17114;52.314;8.910;2024-03-23T04:47:44;6.50;99.90
30308;DHT22;17114;52.314;8.910;2024-03-23T04:50:10;6.50;99.90
30308;DHT22;17114;52.314;8.910;2024-03-23T04:52:36;6.50;99.90
30308;DHT22;17114;52.314;8.910;2024-03-23T04:55:02;6.50;99.90
30308;DHT22;17114;52.314;8.910;2024-03-23T04:57:29;6.40;99.90
30308;DHT22;17114;52.314;8.910;2024-03-23T04:59:55;6.50;99.90
30308;DHT22;17114;52.314;8.910;2024-03-23T05:02:21;6.30;99.90
30308;DHT22;17114;52.314;8.910;2024-03-23T05:04:47;6.40;99.90
30308;DHT22;17114;52.314;8.910;2024-03-23T05:07:13;6.40;99.90
30308;DHT22;17114;52.314;8.910;2024-03-23T05:09:40;6.40;99.90
30308;DHT22;17114;52.314;8.910;2024-03-23T05:12:07;6.40;99.90
30308;DHT22;17114;52.314;8.910;2024-03-23T05:14:33;6.40;99.90
30308;DHT22;17114;52.314;8.910;2024-03-23T05:16:59;6.30;99.90
30308;DHT22;17114;52.314;8.910;2024-03-23T05:19:25;6.40;99.90
30308;DHT22;17114;52.314;8.910;2024-03-23T05:21:51;6.40;99.90
30308;DHT22;17114;52.314;8.910;2024-03-23T05:24:18;6.30;99.90
30308;DHT22;17114;52.314;8.910;2024-03-23T05:26:44;6.30;99.90
30308;DHT22;17114;52.314;8.910;2024-03-23T05:29:10;6.40;99.90
30308;DHT22;17114;52.314;8.910;2024-03-23T05:31:39;6.30;99.90
30308;DHT22;17114;52.314;8.910;2024-03-23T05:34:08;6.30;99.90
30308;DHT22;17114;52.314;8.910;2024-03-23T05:36:35;6.30;99.90
30308;DHT22;17114;52.314;8.910;2024-03-23T05:39:02;6.30;99.90
30308;DHT22;17114;52.314;8.910;2024-03-23T05:41:28;6.30;99.90
30308;DHT22;17114;52.314;8.910;2024-03-23T05:43:54;6.30;99.90
30308;DHT22;17114;52.314;8.910;2024-03-23T05:46:20;6.30;99.90
30308;DHT22;17114;52.314;8.910;2024-03-23T05:48:46;6.30;99.90
30308;DHT22;17114;52.314;8.910;2024-03-23T05:51:12;6.30;99.90
30308;DHT22;17114;52.314;8.910;2024-03-23T05:53:38;6.20;99.90
30308;DHT22;17114;52.314;8.910;2024-03-23T05:56:04;6.30;99.90
30308;DHT22;17114;52.314;8.910;2024-03-23T05:58:32;6.20;99.90
30308;DHT22;17114;52.314;8.910;2024-03-23T06:00:59;6.20;99.90
30308;DHT22;17114;52.314;8.910;2024-03-23T06:03:29;6.20;99.90
30308;DHT22;17114;52.314;8.910;2024-03-23T06:05:56;6.30;99.90
30308;DHT22;17114;52.314;8.910;2024-03-23T06:08:22;6.30;99.90
30308;DHT22;17114;52.314;8.910;2024-03-23T06:10:51;6.30;99.90
30308;DHT22;17114;52.314;8.910;2024-03-23T06:13:17;6.10;99.90
30308;DHT22;17114;52.314;8.910;2024-03-23T06:15:44;6.30;99.90
30308;DHT22;17114;52.314;8.910;2024-03-23T06:18:11;6.30;99.90
30308;DHT22;17114;52.314;8.910;2024-03-23T06:20:38;6.30;99.90
30308;DHT22;17114;52.314;8.910;2024-03-23T06:23:04;6.30;99.90
30308;DHT22;17114;52.314;8.910;2024-03-23T06:25:30;6.30;99.90
30308;DHT22;17114;52.314;8.910;2024-03-23T06:27:56;6.30;99.90
30308;DHT22;17114;52.314;8.910;2024-03-23T06:30:24;6.50;99.90
30308;DHT22;17114;52.314;8.910;2024-03-23T06:32:55;6.30;99.90
30308;DHT22;17114;52.314;8.910;2024-03-23T06:35:21;6.40;99.90
30308;DHT22;17114;52.314;8.910;2024-03-23T06:37:47;6.40;99.90
30308;DHT22;17114;52.314;8.910;2024-03-23T06:40:13;6.40;99.90
30308;DHT22;17114;52.314;8.910;2024-03-23T06:42:40;6.50;99.90
30308;DHT22;17114;52.314;8.910;2024-03-23T06:45:08;6.40;99.90
30308;DHT22;17114;52.314;8.910;2024-03-23T06:47:34;6.50;99.90
30308;DHT22;17114;52.314;8.910;2024-03-23T06:50:04;6.60;99.90
30308;DHT22;17114;52.314;8.910;2024-03-23T06:52:31;6.60;99.90
30308;DHT22;17114;52.314;8.910;2024-03-23T06:54:58;6.70;99.90
30308;DHT22;17114;52.314;8.910;2024-03-23T06:57:24;6.80;99.90
30308;DHT22;17114;52.314;8.910;2024-03-23T06:59:50;6.80;99.90
30308;DHT22;17114;52.314;8.910;2024-03-23T07:02:16;6.80;99.90
30308;DHT22;17114;52.314;8.910;2024-03-23T07:04:42;6.80;99.90
30308;DHT22;17114;52.314;8.910;2024-03-23T07:07:08;6.80;99.90
30308;DHT22;17114;52.314;8.910;2024-03-23T07:09:34;6.80;99.90
30308;DHT22;17114;52.314;8.910;2024-03-23T07:12:00;6.80;99.90
30308;DHT22;17114;52.314;8.910;2024-03-23T07:14:26;6.70;99.90
30308;DHT22;17114;52.314;8.910;2024-03-23T07:16:52;6.70;99.90
30308;DHT22;17114;52.314;8.910;2024-03-23T07:19:18;6.70;99.90
30308;DHT22;17114;52.314;8.910;2024-03-23T07:21:44;6.80;99.90
30308;DHT22;17114;52.314;8.910;2024-03-23T07:24:11;6.80;99.90
30308;DHT22;17114;52.314;8.910;2024-03-23T07:26:37;6.80;99.90
30308;DHT22;17114;52.314;8.910;2024-03-23T07:29:04;6.90;99.90
30308;DHT22;17114;52.314;8.910;2024-03-23T07:31:30;6.90;99.90
30308;DHT22;17114;52.314;8.910;2024-03-23T07:33:56;7.00;99.90
30308;DHT22;17114;52.314;8.910;2024-03-23T07:36:22;7.10;99.90
30308;DHT22;17114;52.314;8.910;2024-03-23T07:38:48;7.20;99.90
30308;DHT22;17114;52.314;8.910;2024-03-23T07:41:23;7.20;99.90
30308;DHT22;17114;52.314;8.910;2024-03-23T07:43:49;7.50;99.90
30308;DHT22;17114;52.314;8.910;2024-03-23T07:46:16;8.00;99.90
30308;DHT22;17114;52.314;8.910;2024-03-23T07:48:43;8.60;99.90
30308;DHT22;17114;52.314;8.910;2024-03-23T07:51:11;8.70;99.90
30308;DHT22;17114;52.314;8.910;2024-03-23T07:53:38;8.80;99.90
30308;DHT22;17114;52.314;8.910;2024-03-23T07:56:06;9.00;99.90
30308;DHT22;17114;52.314;8.910;2024-03-23T07:58:33;9.30;99.90
30308;DHT22;17114;52.314;8.910;2024-03-23T08:01:07;9.70;99.90
30308;DHT22;17114;52.314;8.910;2024-03-23T08:03:40;9.90;99.90
30308;DHT22;17114;52.314;8.910;2024-03-23T08:06:14;10.20;99.90
30308;DHT22;17114;52.314;8.910;2024-03-23T08:08:43;10.60;99.90
30308;DHT22;17114;52.314;8.910;2024-03-23T08:11:10;10.60;99.90
30308;DHT22;17114;52.314;8.910;2024-03-23T08:13:40;10.10;99.90
30308;DHT22;17114;52.314;8.910;2024-03-23T08:16:07;9.80;99.90
30308;DHT22;17114;52.314;8.910;2024-03-23T08:18:34;9.50;99.90
30308;DHT22;17114;52.314;8.910;2024-03-23T08:21:05;9.40;99.90
30308;DHT22;17114;52.314;8.910;2024-03-23T08:23:34;9.20;99.90
30308;DHT22;17114;52.314;8.910;2024-03-23T08:26:04;9.00;99.90
30308;DHT22;17114;52.314;8.910;2024-03-23T08:28:31;9.50;99.90
30308;DHT22;17114;52.314;8.910;2024-03-23T08:31:01;9.90;99.90
30308;DHT22;17114;52.314;8.910;2024-03-23T08:33:28;10.20;99.90
30308;DHT22;17114;52.314;8.910;2024-03-23T08:36:02;10.80;99.90
30308;DHT22;17114;52.314;8.910;2024-03-23T08:38:29;11.00;99.90
30308;DHT22;17114;52.314;8.910;2024-03-23T08:41:00;10.90;99.90
30308;DHT22;17114;52.314;8.910;2024-03-23T08:43:27;10.60;99.90
30308;DHT22;17114;52.314;8.910;2024-03-23T08:45:53;10.20;99.90
30308;DHT22;17114;52.314;8.910;2024-03-23T08:48:20;10.00;99.90
30308;DHT22;17114;52.314;8.910;2024-03-23T08:50:47;9.80;99.90
30308;DHT22;17114;52.314;8.910;2024-03-23T08:53:14;9.60;99.90
30308;DHT22;17114;52.314;8.910;2024-03-23T08:55:40;9.80;99.90
30308;DHT22;17114;52.314;8.910;2024-03-23T08:58:06;9.80;99.90
30308;DHT22;17114;52.314;8.910;2024-03-23T09:00:34;9.80;99.90
30308;DHT22;17114;52.314;8.910;2024-03-23T09:03:00;9.80;99.90
30308;DHT22;17114;52.314;8.910;2024-03-23T09:05:28;9.80;99.90
30308;DHT22;17114;52.314;8.910;2024-03-23T09:07:56;9.90;99.90
30308;DHT22;17114;52.314;8.910;2024-03-23T09:10:22;9.90;99.90
30308;DHT22;17114;52.314;8.910;2024-03-23T09:12:48;9.90;99.90
30308;DHT22;17114;52.314;8.910;2024-03-23T09:15:14;10.00;99.90
30308;DHT22;17114;52.314;8.910;2024-03-23T09:17:40;10.10;99.90
30308;DHT22;17114;52.314;8.910;2024-03-23T09:20:06;10.00;99.90
30308;DHT22;17114;52.314;8.910;2024-03-23T09:22:32;9.70;99.90
30308;DHT22;17114;52.314;8.910;2024-03-23T09:24:58;9.50;99.90
30308;DHT22;17114;52.314;8.910;2024-03-23T09:27:24;9.40;99.90
30308;DHT22;17114;52.314;8.910;2024-03-23T09:29:50;9.30;99.90
30308;DHT22;17114;52.314;8.910;2024-03-23T09:32:17;9.20;99.90
30308;DHT22;17114;52.314;8.910;2024-03-23T09:34:42;9.20;99.90
30308;DHT22;17114;52.314;8.910;2024-03-23T09:37:08;9.40;99.90
30308;DHT22;17114;52.314;8.910;2024-03-23T09:39:34;9.50;99.90
30308;DHT22;17114;52.314;8.910;2024-03-23T09:42:01;10.10;99.90
30308;DHT22;17114;52.314;8.910;2024-03-23T09:44:27;11.10;99.90
30308;DHT22;17114;52.314;8.910;2024-03-23T09:46:55;11.50;99.90
30308;DHT22;17114;52.314;8.910;2024-03-23T09:49:22;11.50;99.90
30308;DHT22;17114;52.314;8.910;2024-03-23T09:51:48;11.70;99.90
30308;DHT22;17114;52.314;8.910;2024-03-23T09:54:14;12.00;99.90
30308;DHT22;17114;52.314;8.910;2024-03-23T09:56:40;12.10;99.90
30308;DHT22;17114;52.314;8.910;2024-03-23T09:59:06;12.30;99.90
30308;DHT22;17114;52.314;8.910;2024-03-23T10:01:33;12.10;99.90
30308;DHT22;17114;52.314;8.910;2024-03-23T10:04:00;12.30;99.90
30308;DHT22;17114;52.314;8.910;2024-03-23T10:06:26;12.40;99.90
30308;DHT22;17114;52.314;8.910;2024-03-23T10:08:54;12.20;99.90
30308;DHT22;17114;52.314;8.910;2024-03-23T10:11:21;12.10;99.90
30308;DHT22;17114;52.314;8.910;2024-03-23T10:13:47;11.90;99.90
30308;DHT22;17114;52.314;8.910;2024-03-23T10:16:24;11.70;99.90
30308;DHT22;17114;52.314;8.910;2024-03-23T10:18:52;11.40;99.90
30308;DHT22;17114;52.314;8.910;2024-03-23T10:21:18;10.80;99.90
30308;DHT22;17114;52.314;8.910;2024-03-23T10:23:44;10.60;99.90
30308;DHT22;17114;52.314;8.910;2024-03-23T10:26:19;10.80;99.90
30308;DHT22;17114;52.314;8.910;2024-03-23T10:28:57;11.10;99.90
30308;DHT22;17114;52.314;8.910;2024-03-23T10:31:34;11.50;99.90
30308;DHT22;17114;52.314;8.910;2024-03-23T10:34:03;12.00;99.90
30308;DHT22;17114;52.314;8.910;2024-03-23T10:36:30;12.20;99.90
30308;DHT22;17114;52.314;8.910;2024-03-23T10:38:56;12.30;99.90
30308;DHT22;17114;52.314;8.910;2024-03-23T10:41:28;12.20;99.90
30308;DHT22;17114;52.314;8.910;2024-03-23T10:43:58;11.70;99.90
30308;DHT22;17114;52.314;8.910;2024-03-23T10:46:25;11.30;99.90
30308;DHT22;17114;52.314;8.910;2024-03-23T10:48:51;11.00;99.90
30308;DHT22;17114;52.314;8.910;2024-03-23T10:51:19;10.70;99.90
30308;DHT22;17114;52.314;8.910;2024-03-23T10:53:45;10.90;99.90
30308;DHT22;17114;52.314;8.910;2024-03-23T10:56:12;11.20;99.90
30308;DHT22;17114;52.314;8.910;2024-03-23T10:58:58;10.90;99.90
30308;DHT22;17114;52.314;8.910;2024-03-23T11:01:24;10.50;99.90
30308;DHT22;17114;52.314;8.910;2024-03-23T11:03:57;10.10;99.90
30308;DHT22;17114;52.314;8.910;2024-03-23T11:06:38;9.50;99.90
30308;DHT22;17114;52.314;8.910;2024-03-23T11:09:38;8.80;99.90
30308;DHT22;17114;52.314;8.910;2024-03-23T11:15:11;8.20;99.90
30308;DHT22;17114;52.314;8.910;2024-03-23T11:17:38;8.80;99.90
30308;DHT22;17114;52.314;8.910;2024-03-23T11:20:05;9.20;99.90
30308;DHT22;17114;52.314;8.910;2024-03-23T11:25:20;8.80;99.90
30308;DHT22;17114;52.314;8.910;2024-03-23T11:27:47;8.60;99.90
30308;DHT22;17114;52.314;8.910;2024-03-23T11:30:15;8.50;99.90
30308;DHT22;17114;52.314;8.910;2024-03-23T11:32:45;8.40;99.90
30308;DHT22;17114;52.314;8.910;2024-03-23T11:35:31;8.50;99.90
30308;DHT22;17114;52.314;8.910;2024-03-23T11:38:15;8.50;99.90
30308;DHT22;17114;52.314;8.910;2024-03-23T11:40:48;8.30;99.90
30308;DHT22;17114;52.314;8.910;2024-03-23T11:43:16;8.00;99.90
30308;DHT22;17114;52.314;8.910;2024-03-23T11:45:50;7.70;99.90
30308;DHT22;17114;52.314;8.910;2024-03-23T11:48:24;7.40;99.90
30308;DHT22;17114;52.314;8.910;2024-03-23T11:50:57;6.90;99.90
30308;DHT22;17114;52.314;8.910;2024-03-23T11:53:29;6.50;99.90
30308;DHT22;17114;52.314;8.910;2024-03-23T11:56:12;6.20;99.90
30308;DHT22;17114;52.314;8.910;2024-03-23T11:58:38;6.00;99.90
30308;DHT22;17114;52.314;8.910;2024-03-23T12:01:10;6.00;99.90
30308;DHT22;17114;52.314;8.910;2024-03-23T12:03:49;6.20;99.90
30308;DHT22;17114;52.314;8.910;2024-03-23T12:06:19;6.70;99.90
30308;DHT22;17114;52.314;8.910;2024-03-23T12:08:46;7.10;99.90
30308;DHT22;17114;52.314;8.910;2024-03-23T12:11:15;7.40;99.90
30308;DHT22;17114;52.314;8.910;2024-03-23T12:13:44;7.60;99.90
30308;DHT22;17114;52.314;8.910;2024-03-23T12:21:32;8.60;99.90
30308;DHT22;17114;52.314;8.910;2024-03-23T12:23:58;8.20;99.90
30308;DHT22;17114;52.314;8.910;2024-03-23T12:26:25;7.90;99.90
30308;DHT22;17114;52.314;8.910;2024-03-23T12:28:57;7.90;99.90
30308;DHT22;17114;52.314;8.910;2024-03-23T12:31:51;7.80;99.90
30308;DHT22;17114;52.314;8.910;2024-03-23T12:34:17;7.80;99.90
30308;DHT22;17114;52.314;8.910;2024-03-23T12:36:53;8.00;99.90
30308;DHT22;17114;52.314;8.910;2024-03-23T12:39:20;8.00;99.90
30308;DHT22;17114;52.314;8.910;2024-03-23T12:41:48;8.20;99.90
30308;DHT22;17114;52.314;8.910;2024-03-23T12:44:15;8.30;99.90
30308;DHT22;17114;52.314;8.910;2024-03-23T12:46:44;8.30;99.90
30308;DHT22;17114;52.314;8.910;2024-03-23T12:49:11;8.20;99.90
30308;DHT22;17114;52.314;8.910;2024-03-23T12:51:38;8.50;99.90
30308;DHT22;17114;52.314;8.910;2024-03-23T12:54:05;9.00;99.90
30308;DHT22;17114;52.314;8.910;2024-03-23T12:56:32;9.20;99.90
30308;DHT22;17114;52.314;8.910;2024-03-23T12:58:58;9.60;99.90
30308;DHT22;17114;52.314;8.910;2024-03-23T13:01:24;10.00;99.90
30308;DHT22;17114;52.314;8.910;2024-03-23T13:03:50;10.20;99.90
30308;DHT22;17114;52.314;8.910;2024-03-23T13:06:19;10.40;99.90
30308;DHT22;17114;52.314;8.910;2024-03-23T13:08:47;10.30;99.90
30308;DHT22;17114;52.314;8.910;2024-03-23T13:11:13;10.20;99.90
30308;DHT22;17114;52.314;8.910;2024-03-23T13:13:40;10.20;99.90
30308;DHT22;17114;52.314;8.910;2024-03-23T13:16:07;10.10;99.90
30308;DHT22;17114;52.314;8.910;2024-03-23T13:18:34;9.90;99.90
30308;DHT22;17114;52.314;8.910;2024-03-23T13:21:00;9.80;99.90
30308;DHT22;17114;52.314;8.910;2024-03-23T13:23:26;9.50;99.90
30308;DHT22;17114;52.314;8.910;2024-03-23T13:25:55;9.20;99.90
30308;DHT22;17114;52.314;8.910;2024-03-23T13:28:22;8.80;99.90
30308;DHT22;17114;52.314;8.910;2024-03-23T13:30:55;8.50;99.90
30308;DHT22;17114;52.314;8.910;2024-03-23T13:33:21;8.30;99.90
30308;DHT22;17114;52.314;8.910;2024-03-23T13:35:54;8.10;99.90
30308;DHT22;17114;52.314;8.910;2024-03-23T13:38:22;7.90;99.90
30308;DHT22;17114;52.314;8.910;2024-03-23T13:40:59;7.40;99.90
30308;DHT22;17114;52.314;8.910;2024-03-23T13:43:31;6.90;99.90
30308;DHT22;17114;52.314;8.910;2024-03-23T13:45:58;6.40;99.90
30308;DHT22;17114;52.314;8.910;2024-03-23T13:48:27;6.20;99.90
30308;DHT22;17114;52.314;8.910;2024-03-23T13:51:00;5.60;99.90
30308;DHT22;17114;52.314;8.910;2024-03-23T13:53:26;5.60;99.90
30308;DHT22;17114;52.314;8.910;2024-03-23T13:55:52;5.60;99.90
30308;DHT22;17114;52.314;8.910;2024-03-23T13:58:19;5.50;99.90
30308;DHT22;17114;52.314;8.910;2024-03-23T14:00:45;5.60;99.90
30308;DHT22;17114;52.314;8.910;2024-03-23T14:03:12;5.60;99.90
30308;DHT22;17114;52.314;8.910;2024-03-23T14:05:39;5.60;99.90
30308;DHT22;17114;52.314;8.910;2024-03-23T14:08:10;5.60;99.90
30308;DHT22;17114;52.314;8.910;2024-03-23T14:10:40;5.70;99.90
30308;DHT22;17114;52.314;8.910;2024-03-23T14:13:06;6.00;99.90
30308;DHT22;17114;52.314;8.910;2024-03-23T14:15:33;6.40;99.90
30308;DHT22;17114;52.314;8.910;2024-03-23T14:18:00;6.80;99.90
30308;DHT22;17114;52.314;8.910;2024-03-23T14:20:26;7.20;99.90
30308;DHT22;17114;52.314;8.910;2024-03-23T14:22:52;7.50;99.90
30308;DHT22;17114;52.314;8.910;2024-03-23T14:25:18;7.70;99.90
30308;DHT22;17114;52.314;8.910;2024-03-23T14:27:45;7.80;99.90
30308;DHT22;17114;52.314;8.910;2024-03-23T14:30:12;8.00;99.90
30308;DHT22;17114;52.314;8.910;2024-03-23T14:32:40;8.10;99.90
30308;DHT22;17114;52.314;8.910;2024-03-23T14:35:06;8.20;99.90
30308;DHT22;17114;52.314;8.910;2024-03-23T14:37:37;8.10;99.90
30308;DHT22;17114;52.314;8.910;2024-03-23T14:40:04;8.10;99.90
30308;DHT22;17114;52.314;8.910;2024-03-23T14:42:30;8.20;99.90
30308;DHT22;17114;52.314;8.910;2024-03-23T14:44:58;8.20;99.90
30308;DHT22;17114;52.314;8.910;2024-03-23T14:47:25;8.20;99.90
30308;DHT22;17114;52.314;8.910;2024-03-23T14:49:51;8.20;99.90
30308;DHT22;17114;52.314;8.910;2024-03-23T14:52:17;8.10;99.90
30308;DHT22;17114;52.314;8.910;2024-03-23T14:54:47;7.90;99.90
30308;DHT22;17114;52.314;8.910;2024-03-23T14:57:14;7.50;99.90
30308;DHT22;17114;52.314;8.910;2024-03-23T14:59:41;6.80;99.90
30308;DHT22;17114;52.314;8.910;2024-03-23T15:02:07;6.40;99.90
30308;DHT22;17114;52.314;8.910;2024-03-23T15:04:34;6.00;99.90
30308;DHT22;17114;52.314;8.910;2024-03-23T15:07:01;5.80;99.90
30308;DHT22;17114;52.314;8.910;2024-03-23T15:09:27;5.90;99.90
30308;DHT22;17114;52.314;8.910;2024-03-23T15:11:53;5.70;99.90
30308;DHT22;17114;52.314;8.910;2024-03-23T15:14:23;5.90;99.90
30308;DHT22;17114;52.314;8.910;2024-03-23T15:16:50;6.10;99.90
30308;DHT22;17114;52.314;8.910;2024-03-23T15:19:16;6.30;99.90
30308;DHT22;17114;52.314;8.910;2024-03-23T15:21:43;6.50;99.90
30308;DHT22;17114;52.314;8.910;2024-03-23T15:24:10;6.60;99.90
30308;DHT22;17114;52.314;8.910;2024-03-23T15:26:39;6.60;99.90
30308;DHT22;17114;52.314;8.910;2024-03-23T15:29:08;6.60;99.90
30308;DHT22;17114;52.314;8.910;2024-03-23T15:31:43;6.70;99.90
30308;DHT22;17114;52.314;8.910;2024-03-23T15:34:09;6.70;99.90
30308;DHT22;17114;52.314;8.910;2024-03-23T15:36:37;6.70;99.90
30308;DHT22;17114;52.314;8.910;2024-03-23T15:39:05;6.70;99.90
30308;DHT22;17114;52.314;8.910;2024-03-23T15:41:32;6.70;99.90
30308;DHT22;17114;52.314;8.910;2024-03-23T15:43:59;6.70;99.90
30308;DHT22;17114;52.314;8.910;2024-03-23T15:46:26;6.60;99.90
30308;DHT22;17114;52.314;8.910;2024-03-23T15:48:52;6.50;99.90
30308;DHT22;17114;52.314;8.910;2024-03-23T15:51:18;6.50;99.90
30308;DHT22;17114;52.314;8.910;2024-03-23T15:53:45;6.70;99.90
30308;DHT22;17114;52.314;8.910;2024-03-23T15:56:11;6.50;99.90
30308;DHT22;17114;52.314;8.910;2024-03-23T15:58:38;6.60;99.90
30308;DHT22;17114;52.314;8.910;2024-03-23T16:01:06;6.60;99.90
30308;DHT22;17114;52.314;8.910;2024-03-23T16:03:37;6.60;99.90
30308;DHT22;17114;52.314;8.910;2024-03-23T16:06:05;6.50;99.90
30308;DHT22;17114;52.314;8.910;2024-03-23T16:08:33;6.50;99.90
30308;DHT22;17114;52.314;8.910;2024-03-23T16:11:04;6.70;99.90
30308;DHT22;17114;52.314;8.910;2024-03-23T16:13:32;6.50;99.90
30308;DHT22;17114;52.314;8.910;2024-03-23T16:16:01;6.40;99.90
30308;DHT22;17114;52.314;8.910;2024-03-23T16:18:30;6.40;99.90
30308;DHT22;17114;52.314;8.910;2024-03-23T16:20:58;6.40;99.90
30308;DHT22;17114;52.314;8.910;2024-03-23T16:23:24;6.50;99.90
30308;DHT22;17114;52.314;8.910;2024-03-23T16:25:52;6.70;99.90
30308;DHT22;17114;52.314;8.910;2024-03-23T16:28:27;6.60;99.90
30308;DHT22;17114;52.314;8.910;2024-03-23T16:30:59;6.70;99.90
30308;DHT22;17114;52.314;8.910;2024-03-23T16:33:27;6.60;99.90
30308;DHT22;17114;52.314;8.910;2024-03-23T16:36:05;6.60;99.90
30308;DHT22;17114;52.314;8.910;2024-03-23T16:38:33;6.50;99.90
30308;DHT22;17114;52.314;8.910;2024-03-23T16:41:02;6.50;99.90
30308;DHT22;17114;52.314;8.910;2024-03-23T16:43:29;6.40;99.90
30308;DHT22;17114;52.314;8.910;2024-03-23T16:46:00;6.40;99.90
30308;DHT22;17114;52.314;8.910;2024-03-23T16:48:30;6.30;99.90
30308;DHT22;17114;52.314;8.910;2024-03-23T16:50:58;6.20;99.90
30308;DHT22;17114;52.314;8.910;2024-03-23T16:53:25;6.30;99.90